createdAt,value
2017-12-20T00:00:01.376Z,3.93
2017-12-20T00:01:11.215Z,3.87
2017-12-20T00:02:21.355Z,3.94
2017-12-20T00:03:31.491Z,3.98
2017-12-20T00:04:41.424Z,4
2017-12-20T00:05:51.564Z,3.95
2017-12-20T00:07:01.683Z,3.98
2017-12-20T00:08:11.794Z,3.94
2017-12-20T00:09:21.573Z,3.97
2017-12-20T00:10:31.957Z,3.91
2017-12-20T00:11:41.754Z,3.95
2017-12-20T00:12:51.884Z,3.94
2017-12-20T00:14:01.635Z,3.9
2017-12-20T00:15:11.784Z,3.9
2017-12-20T00:16:22.008Z,3.95
2017-12-20T00:17:32.159Z,3.91
2017-12-20T00:18:42.135Z,3.94
2017-12-20T00:19:52.020Z,3.85
2017-12-20T00:21:02.133Z,3.87
2017-12-20T00:22:12.250Z,3.85
2017-12-20T00:23:22.377Z,3.8
2017-12-20T00:24:32.552Z,3.76
2017-12-20T00:25:42.696Z,3.79
2017-12-20T00:26:53.178Z,3.79
2017-12-20T00:28:03.280Z,3.77
2017-12-20T00:29:13.468Z,3.8
2017-12-20T00:30:23.670Z,3.8
2017-12-20T00:31:33.905Z,3.82
2017-12-20T00:32:43.886Z,3.79
2017-12-20T00:33:53.774Z,3.75
2017-12-20T00:35:03.518Z,3.75
2017-12-20T00:36:13.854Z,3.77
2017-12-20T00:37:24.123Z,3.75
2017-12-20T00:38:34.287Z,3.75
2017-12-20T00:39:44.210Z,3.75
2017-12-20T00:40:54.347Z,3.73
2017-12-20T00:42:04.221Z,3.77
2017-12-20T00:43:14.339Z,3.72
2017-12-20T00:44:24.266Z,3.76
2017-12-20T00:45:34.368Z,3.76
2017-12-20T00:46:44.464Z,3.72
2017-12-20T00:47:54.325Z,3.72
2017-12-20T00:49:04.437Z,3.72
2017-12-20T00:50:14.586Z,3.68
2017-12-20T00:51:24.716Z,3.72
2017-12-20T00:52:35.192Z,3.75
2017-12-20T00:53:45.319Z,3.76
2017-12-20T00:54:55.461Z,3.76
2017-12-20T00:56:05.413Z,3.73
2017-12-20T00:57:15.351Z,3.77
2017-12-20T00:58:25.565Z,3.73
2017-12-20T00:59:35.769Z,3.75
2017-12-20T01:00:45.892Z,3.76
2017-12-20T01:01:55.602Z,3.75
2017-12-20T01:03:05.517Z,3.68
2017-12-20T01:04:16.362Z,3.77
2017-12-20T01:05:26.518Z,3.77
2017-12-20T01:06:36.730Z,3.8
2017-12-20T01:07:46.599Z,3.76
2017-12-20T01:08:56.697Z,3.87
2017-12-20T01:10:06.917Z,3.83
2017-12-20T01:11:17.128Z,3.79
2017-12-20T01:12:26.966Z,3.83
2017-12-20T01:13:36.824Z,3.79
2017-12-20T01:14:46.514Z,3.83
2017-12-20T01:15:56.530Z,3.86
2017-12-20T01:17:06.740Z,3.77
2017-12-20T01:18:16.903Z,3.8
2017-12-20T01:19:26.748Z,3.75
2017-12-20T01:20:36.605Z,3.69
2017-12-20T01:21:46.775Z,3.68
2017-12-20T01:22:56.894Z,3.69
2017-12-20T01:24:07.095Z,3.76
2017-12-20T01:25:16.653Z,3.69
2017-12-20T01:26:26.776Z,3.8
2017-12-20T01:27:36.876Z,3.65
2017-12-20T01:28:46.996Z,3.75
2017-12-20T01:29:57.108Z,3.75
2017-12-20T01:31:07.693Z,3.69
2017-12-20T01:32:17.796Z,3.72
2017-12-20T01:33:27.943Z,3.72
2017-12-20T01:34:38.160Z,3.77
2017-12-20T01:35:48.347Z,3.77
2017-12-20T01:36:58.462Z,3.79
2017-12-20T01:38:08.592Z,3.73
2017-12-20T01:39:18.860Z,3.76
2017-12-20T01:40:28.711Z,3.75
2017-12-20T01:41:38.912Z,3.75
2017-12-20T01:42:48.764Z,3.83
2017-12-20T01:43:58.868Z,3.83
2017-12-20T01:45:08.599Z,3.83
2017-12-20T01:46:18.779Z,3.77
2017-12-20T01:47:28.998Z,3.87
2017-12-20T01:48:39.189Z,3.82
2017-12-20T01:49:50.265Z,3.9
2017-12-20T01:51:00.370Z,3.8
2017-12-20T01:52:09.969Z,3.87
2017-12-20T01:53:20.107Z,3.8
2017-12-20T01:54:30.318Z,3.82
2017-12-20T01:55:40.435Z,3.85
2017-12-20T01:56:50.546Z,3.77
2017-12-20T01:58:00.648Z,3.86
2017-12-20T01:59:10.431Z,3.83
2017-12-20T02:00:20.312Z,3.77
2017-12-20T02:01:30.412Z,3.8
2017-12-20T02:02:40.535Z,3.82
2017-12-20T02:03:50.729Z,3.83
2017-12-20T02:05:00.584Z,3.77
2017-12-20T02:06:10.763Z,3.77
2017-12-20T02:07:20.627Z,3.85
2017-12-20T02:08:30.786Z,3.85
2017-12-20T02:09:40.896Z,3.85
2017-12-20T02:10:50.741Z,3.83
2017-12-20T02:12:00.843Z,3.76
2017-12-20T02:13:10.459Z,3.79
2017-12-20T02:14:20.051Z,3.73
2017-12-20T02:15:29.940Z,3.83
2017-12-20T02:16:39.795Z,3.75
2017-12-20T02:17:49.548Z,3.75
2017-12-20T02:18:59.709Z,3.76
2017-12-20T02:20:09.681Z,3.79
2017-12-20T02:21:19.800Z,3.75
2017-12-20T02:22:29.891Z,3.73
2017-12-20T02:23:39.990Z,3.76
2017-12-20T02:24:50.133Z,3.72
2017-12-20T02:26:00.070Z,3.69
2017-12-20T02:27:10.309Z,3.76
2017-12-20T02:28:20.159Z,3.79
2017-12-20T02:29:30.028Z,3.76
2017-12-20T02:30:40.147Z,3.82
2017-12-20T02:31:49.737Z,3.8
2017-12-20T02:32:59.854Z,3.8
2017-12-20T02:34:09.975Z,3.79
2017-12-20T02:35:19.903Z,3.83
2017-12-20T02:36:29.462Z,3.79
2017-12-20T02:37:39.590Z,3.82
2017-12-20T02:38:49.752Z,3.85
2017-12-20T02:39:59.506Z,3.8
2017-12-20T02:41:09.678Z,3.9
2017-12-20T02:42:19.797Z,3.85
2017-12-20T02:43:29.906Z,3.91
2017-12-20T02:44:40.037Z,3.9
2017-12-20T02:45:50.144Z,3.94
2017-12-20T02:46:59.757Z,3.86
2017-12-20T02:48:09.413Z,3.91
2017-12-20T02:49:19.707Z,3.98
2017-12-20T02:50:29.553Z,3.93
2017-12-20T02:51:39.662Z,4.04
2017-12-20T02:52:49.805Z,4.08
2017-12-20T02:53:59.966Z,4.08
2017-12-20T02:55:09.818Z,4.01
2017-12-20T02:56:19.676Z,4.01
2017-12-20T02:57:29.799Z,3.98
2017-12-20T02:58:39.963Z,4.04
2017-12-20T02:59:50.058Z,4.11
2017-12-20T03:00:59.871Z,4.05
2017-12-20T03:02:09.830Z,4.08
2017-12-20T03:03:19.692Z,4.11
2017-12-20T03:04:29.589Z,4.01
2017-12-20T03:05:39.422Z,4.05
2017-12-20T03:06:49.530Z,4
2017-12-20T03:07:59.309Z,4.03
2017-12-20T03:09:09.450Z,4.01
2017-12-20T03:10:19.607Z,3.97
2017-12-20T03:11:30.685Z,4.03
2017-12-20T03:12:40.809Z,4
2017-12-20T03:13:51.097Z,4
2017-12-20T03:15:01.196Z,4
2017-12-20T03:16:11.306Z,4.03
2017-12-20T03:17:21.181Z,4.03
2017-12-20T03:18:31.316Z,3.97
2017-12-20T03:19:41.477Z,4.04
2017-12-20T03:20:51.586Z,4
2017-12-20T03:22:01.694Z,4.16
2017-12-20T03:23:11.785Z,4.05
2017-12-20T03:24:21.895Z,4.15
2017-12-20T03:25:31.773Z,4.12
2017-12-20T03:26:41.917Z,4.13
2017-12-20T03:27:51.792Z,4.12
2017-12-20T03:29:01.784Z,4.03
2017-12-20T03:30:11.631Z,4.13
2017-12-20T03:31:21.192Z,4.04
2017-12-20T03:32:31.336Z,4
2017-12-20T03:33:41.441Z,4.04
2017-12-20T03:34:51.545Z,4.12
2017-12-20T03:36:01.145Z,3.98
2017-12-20T03:37:11.365Z,4.09
2017-12-20T03:38:21.226Z,4.01
2017-12-20T03:39:31.475Z,3.98
2017-12-20T03:40:41.576Z,4.01
2017-12-20T03:41:51.878Z,4
2017-12-20T03:43:01.764Z,4.08
2017-12-20T03:44:11.877Z,3.97
2017-12-20T03:45:21.728Z,3.98
2017-12-20T03:46:31.209Z,4
2017-12-20T03:47:41.133Z,3.95
2017-12-20T03:48:51.237Z,4
2017-12-20T03:50:01.102Z,3.98
2017-12-20T03:51:11.229Z,4
2017-12-20T03:52:21.340Z,4.05
2017-12-20T03:53:31.547Z,4
2017-12-20T03:54:41.393Z,4.04
2017-12-20T03:55:51.505Z,4.01
2017-12-20T03:57:01.833Z,4.03
2017-12-20T03:58:11.486Z,3.98
2017-12-20T03:59:22.281Z,3.97
2017-12-20T04:00:32.485Z,3.97
2017-12-20T04:01:42.644Z,3.95
2017-12-20T04:02:52.523Z,3.94
2017-12-20T04:04:02.276Z,3.94
2017-12-20T04:05:12.413Z,3.95
2017-12-20T04:06:21.925Z,3.97
2017-12-20T04:07:32.037Z,4
2017-12-20T04:08:41.902Z,3.97
2017-12-20T04:09:52.019Z,3.93
2017-12-20T04:11:02.843Z,3.85
2017-12-20T04:12:13.072Z,3.85
2017-12-20T04:13:23.230Z,3.87
2017-12-20T04:14:33.118Z,3.8
2017-12-20T04:15:43.355Z,3.8
2017-12-20T04:16:54.579Z,3.77
2017-12-20T04:18:04.771Z,3.77
2017-12-20T04:19:14.985Z,3.75
2017-12-20T04:20:24.829Z,3.76
2017-12-20T04:21:34.718Z,3.67
2017-12-20T04:22:44.823Z,3.73
2017-12-20T04:23:55.097Z,3.68
2017-12-20T04:25:05.211Z,3.77
2017-12-20T04:26:15.397Z,3.67
2017-12-20T04:27:25.542Z,3.79
2017-12-20T04:28:35.734Z,3.8
2017-12-20T04:29:45.577Z,3.73
2017-12-20T04:30:55.699Z,3.72
2017-12-20T04:32:05.825Z,3.79
2017-12-20T04:33:15.928Z,3.73
2017-12-20T04:34:25.538Z,3.68
2017-12-20T04:35:35.387Z,3.69
2017-12-20T04:36:45.227Z,3.69
2017-12-20T04:37:55.171Z,3.67
2017-12-20T04:39:05.037Z,3.72
2017-12-20T04:40:14.885Z,3.77
2017-12-20T04:41:24.978Z,3.62
2017-12-20T04:42:35.108Z,3.58
2017-12-20T04:43:44.981Z,3.68
2017-12-20T04:44:55.131Z,3.69
2017-12-20T04:46:05.299Z,3.58
2017-12-20T04:47:15.076Z,3.59
2017-12-20T04:48:25.042Z,3.57
2017-12-20T04:49:35.146Z,3.55
2017-12-20T04:50:45.234Z,3.61
2017-12-20T04:51:55.416Z,3.59
2017-12-20T04:53:05.282Z,3.5
2017-12-20T04:54:15.432Z,3.57
2017-12-20T04:55:25.549Z,3.55
2017-12-20T04:56:35.679Z,3.54
2017-12-20T04:57:45.560Z,3.64
2017-12-20T04:58:55.413Z,3.58
2017-12-20T05:00:05.498Z,3.68
2017-12-20T05:01:15.378Z,3.75
2017-12-20T05:02:25.499Z,3.68
2017-12-20T05:03:35.622Z,3.73
2017-12-20T05:04:45.856Z,3.82
2017-12-20T05:05:55.714Z,3.83
2017-12-20T05:07:05.950Z,3.83
2017-12-20T05:08:15.799Z,3.83
2017-12-20T05:09:25.925Z,3.86
2017-12-20T05:10:35.816Z,3.73
2017-12-20T05:11:45.926Z,3.67
2017-12-20T05:12:56.079Z,3.73
2017-12-20T05:14:06.322Z,3.72
2017-12-20T05:15:16.465Z,3.76
2017-12-20T05:16:26.561Z,3.73
2017-12-20T05:17:36.741Z,3.75
2017-12-20T05:18:46.707Z,3.75
2017-12-20T05:19:56.564Z,3.68
2017-12-20T05:21:06.659Z,3.75
2017-12-20T05:22:16.773Z,3.82
2017-12-20T05:23:26.963Z,3.8
2017-12-20T05:24:37.082Z,3.75
2017-12-20T05:25:47.223Z,3.79
2017-12-20T05:26:57.334Z,3.75
2017-12-20T05:28:07.217Z,3.75
2017-12-20T05:29:17.332Z,3.69
2017-12-20T05:30:27.444Z,3.72
2017-12-20T05:31:37.582Z,3.69
2017-12-20T05:32:47.212Z,3.75
2017-12-20T05:33:58.170Z,3.75
2017-12-20T05:35:08.061Z,3.8
2017-12-20T05:36:18.154Z,3.85
2017-12-20T05:37:28.086Z,3.77
2017-12-20T05:38:38.563Z,3.79
2017-12-20T05:39:48.419Z,3.85
2017-12-20T05:40:58.541Z,3.85
2017-12-20T05:42:08.663Z,3.82
2017-12-20T05:43:18.561Z,3.76
2017-12-20T05:44:27.949Z,3.72
2017-12-20T05:45:38.103Z,3.72
2017-12-20T05:46:47.946Z,3.75
2017-12-20T05:47:57.717Z,3.69
2017-12-20T05:49:07.413Z,3.64
2017-12-20T05:50:17.247Z,3.67
2017-12-20T05:51:27.122Z,3.76
2017-12-20T05:52:37.231Z,3.73
2017-12-20T05:53:47.390Z,3.68
2017-12-20T05:54:57.548Z,3.79
2017-12-20T05:56:07.658Z,3.68
2017-12-20T05:57:18.026Z,3.68
2017-12-20T05:58:28.146Z,3.75
2017-12-20T05:59:38.026Z,3.69
2017-12-20T06:00:47.874Z,3.73
2017-12-20T06:01:58.069Z,3.76
2017-12-20T06:03:08.255Z,3.67
2017-12-20T06:04:18.527Z,3.75
2017-12-20T06:05:28.318Z,3.69
2017-12-20T06:06:38.167Z,3.83
2017-12-20T06:07:48.302Z,3.69
2017-12-20T06:08:58.412Z,3.65
2017-12-20T06:10:08.622Z,3.67
2017-12-20T06:11:18.751Z,3.67
2017-12-20T06:12:28.620Z,3.75
2017-12-20T06:13:38.472Z,3.67
2017-12-20T06:14:48.590Z,3.75
2017-12-20T06:15:58.824Z,3.69
2017-12-20T06:17:08.989Z,3.76
2017-12-20T06:18:18.962Z,3.73
2017-12-20T06:19:29.071Z,3.69
2017-12-20T06:20:39.934Z,3.8
2017-12-20T06:21:50.030Z,3.72
2017-12-20T06:22:59.760Z,3.64
2017-12-20T06:24:09.666Z,3.68
2017-12-20T06:25:19.917Z,3.68
2017-12-20T06:26:30.063Z,3.72
2017-12-20T06:27:40.158Z,3.68
2017-12-20T06:28:50.287Z,3.77
2017-12-20T06:30:00.253Z,3.67
2017-12-20T06:31:10.373Z,3.72
2017-12-20T06:32:20.502Z,3.67
2017-12-20T06:33:30.600Z,3.62
2017-12-20T06:34:40.473Z,3.65
2017-12-20T06:35:50.334Z,3.67
2017-12-20T06:37:00.457Z,3.61
2017-12-20T06:38:10.319Z,3.55
2017-12-20T06:39:19.963Z,3.69
2017-12-20T06:40:30.069Z,3.68
2017-12-20T06:41:40.174Z,3.67
2017-12-20T06:42:50.028Z,3.68
2017-12-20T06:44:00.361Z,3.67
2017-12-20T06:45:10.486Z,3.76
2017-12-20T06:46:20.629Z,3.69
2017-12-20T06:47:30.807Z,3.67
2017-12-20T06:48:40.667Z,3.68
2017-12-20T06:49:50.775Z,3.72
2017-12-20T06:51:00.525Z,3.68
2017-12-20T06:52:10.312Z,3.69
2017-12-20T06:53:20.453Z,3.72
2017-12-20T06:54:30.550Z,3.67
2017-12-20T06:55:40.659Z,3.73
2017-12-20T06:56:51.740Z,3.67
2017-12-20T06:58:01.852Z,3.59
2017-12-20T06:59:11.703Z,3.57
2017-12-20T07:00:21.834Z,3.52
2017-12-20T07:01:32.014Z,3.59
2017-12-20T07:02:42.151Z,3.62
2017-12-20T07:03:52.002Z,3.65
2017-12-20T07:05:02.160Z,3.54
2017-12-20T07:06:13.273Z,3.49
2017-12-20T07:07:23.669Z,3.54
2017-12-20T07:08:33.796Z,3.47
2017-12-20T07:09:43.976Z,3.4
2017-12-20T07:10:54.080Z,3.47
2017-12-20T07:12:04.216Z,3.46
2017-12-20T07:13:13.809Z,3.42
2017-12-20T07:14:23.987Z,3.49
2017-12-20T07:15:33.850Z,3.37
2017-12-20T07:16:43.954Z,3.4
2017-12-20T07:17:54.097Z,3.42
2017-12-20T07:19:03.859Z,3.39
2017-12-20T07:20:13.724Z,3.42
2017-12-20T07:21:23.579Z,3.44
2017-12-20T07:22:33.683Z,3.49
2017-12-20T07:23:43.553Z,3.47
2017-12-20T07:24:54.434Z,3.52
2017-12-20T07:26:03.980Z,3.55
2017-12-20T07:27:14.180Z,3.57
2017-12-20T07:28:23.925Z,3.59
2017-12-20T07:29:33.894Z,3.58
2017-12-20T07:30:43.811Z,3.67
2017-12-20T07:31:53.913Z,3.59
2017-12-20T07:33:04.028Z,3.61
2017-12-20T07:34:13.815Z,3.57
2017-12-20T07:35:23.942Z,3.58
2017-12-20T07:36:34.184Z,3.55
2017-12-20T07:37:44.343Z,3.55
2017-12-20T07:38:54.435Z,3.55
2017-12-20T07:40:04.582Z,3.57
2017-12-20T07:41:14.680Z,3.5
2017-12-20T07:42:24.553Z,3.55
2017-12-20T07:43:34.420Z,3.54
2017-12-20T07:44:44.292Z,3.54
2017-12-20T07:45:53.769Z,3.57
2017-12-20T07:47:03.888Z,3.47
2017-12-20T07:48:14.040Z,3.49
2017-12-20T07:49:24.026Z,3.52
2017-12-20T07:50:34.147Z,3.54
2017-12-20T07:51:44.310Z,3.59
2017-12-20T07:52:54.482Z,3.57
2017-12-20T07:54:04.686Z,3.62
2017-12-20T07:55:14.975Z,3.52
2017-12-20T07:56:25.191Z,3.54
2017-12-20T07:57:35.095Z,3.57
2017-12-20T07:58:45.238Z,3.55
2017-12-20T07:59:55.010Z,3.58
2017-12-20T08:01:04.955Z,3.55
2017-12-20T08:02:14.836Z,3.58
2017-12-20T08:03:24.689Z,3.55
2017-12-20T08:04:34.815Z,3.59
2017-12-20T08:05:44.715Z,3.55
2017-12-20T08:06:54.877Z,3.61
2017-12-20T08:08:05.000Z,3.75
2017-12-20T08:09:14.853Z,3.68
2017-12-20T08:10:25.033Z,3.68
2017-12-20T08:11:35.145Z,3.75
2017-12-20T08:12:45.314Z,3.61
2017-12-20T08:13:55.589Z,3.67
2017-12-20T08:15:05.731Z,3.68
2017-12-20T08:16:15.882Z,3.73
2017-12-20T08:17:26.054Z,3.69
2017-12-20T08:18:36.161Z,3.73
2017-12-20T08:19:46.280Z,3.69
2017-12-20T08:20:56.394Z,3.75
2017-12-20T08:22:05.879Z,3.77
2017-12-20T08:23:15.992Z,3.85
2017-12-20T08:24:26.068Z,3.95
2017-12-20T08:25:36.291Z,3.91
2017-12-20T08:26:46.200Z,3.95
2017-12-20T08:27:56.333Z,4
2017-12-20T08:29:06.496Z,4
2017-12-20T08:30:16.690Z,4.03
2017-12-20T08:31:26.956Z,4
2017-12-20T08:32:37.088Z,3.98
2017-12-20T08:33:47.025Z,4.03
2017-12-20T08:34:57.136Z,4.05
2017-12-20T08:36:07.017Z,3.98
2017-12-20T08:37:17.143Z,3.97
2017-12-20T08:38:27.276Z,4.01
2017-12-20T08:39:37.095Z,4.05
2017-12-20T08:40:47.213Z,4.2
2017-12-20T08:41:57.360Z,4.15
2017-12-20T08:43:06.972Z,4.23
2017-12-20T08:44:17.065Z,4.31
2017-12-20T08:45:27.195Z,4.36
2017-12-20T08:46:37.085Z,4.43
2017-12-20T08:47:47.192Z,4.56
2017-12-20T08:48:57.392Z,4.52
2017-12-20T08:50:07.287Z,4.52
2017-12-20T08:51:17.401Z,4.62
2017-12-20T08:52:27.531Z,4.57
2017-12-20T08:53:37.406Z,4.49
2017-12-20T08:54:47.262Z,4.67
2017-12-20T08:55:57.604Z,4.63
2017-12-20T08:57:07.726Z,4.7
2017-12-20T08:58:17.810Z,4.71
2017-12-20T08:59:27.929Z,4.74
2017-12-20T09:00:38.082Z,4.63
2017-12-20T09:01:47.569Z,4.7
2017-12-20T09:02:57.693Z,4.68
2017-12-20T09:04:07.851Z,4.67
2017-12-20T09:05:17.721Z,4.63
2017-12-20T09:06:27.831Z,4.56
2017-12-20T09:07:37.370Z,4.57
2017-12-20T09:08:47.626Z,4.55
2017-12-20T09:09:57.230Z,4.52
2017-12-20T09:11:07.356Z,4.52
2017-12-20T09:12:17.106Z,4.4
2017-12-20T09:13:26.949Z,4.43
2017-12-20T09:14:36.536Z,4.38
2017-12-20T09:15:46.387Z,4.43
2017-12-20T09:16:56.492Z,4.5
2017-12-20T09:18:06.600Z,4.6
2017-12-20T09:19:16.717Z,4.7
2017-12-20T09:20:26.835Z,4.6
2017-12-20T09:21:36.718Z,4.7
2017-12-20T09:22:46.881Z,4.68
2017-12-20T09:23:56.832Z,4.83
2017-12-20T09:25:06.596Z,4.96
2017-12-20T09:26:16.706Z,5.18
2017-12-20T09:27:26.921Z,5.21
2017-12-20T09:28:37.144Z,5.43
2017-12-20T09:29:47.051Z,5.53
2017-12-20T09:30:57.210Z,5.67
2017-12-20T09:32:07.317Z,5.93
2017-12-20T09:33:17.210Z,5.79
2017-12-20T09:34:27.245Z,5.98
2017-12-20T09:35:37.435Z,6.05
2017-12-20T09:36:47.668Z,6.17
2017-12-20T09:37:57.415Z,6.35
2017-12-20T09:39:07.214Z,6.35
2017-12-20T09:40:17.414Z,6.45
2017-12-20T09:41:27.286Z,6.28
2017-12-20T09:42:37.341Z,6.28
2017-12-20T09:43:47.497Z,6.31
2017-12-20T09:44:57.669Z,6.45
2017-12-20T09:46:07.684Z,6.39
2017-12-20T09:47:17.809Z,6.45
2017-12-20T09:48:27.937Z,6.49
2017-12-20T09:49:37.804Z,6.49
2017-12-20T09:50:47.981Z,6.53
2017-12-20T09:51:57.751Z,6.48
2017-12-20T09:53:07.949Z,6.52
2017-12-20T09:54:17.804Z,6.66
2017-12-20T09:55:27.569Z,6.79
2017-12-20T09:56:38.677Z,6.93
2017-12-20T09:57:48.455Z,7.17
2017-12-20T09:58:58.214Z,7.51
2017-12-20T10:00:08.344Z,7.76
2017-12-20T10:01:19.444Z,8.09
2017-12-20T10:02:29.615Z,8.5
2017-12-20T10:03:39.463Z,8.82
2017-12-20T10:04:49.602Z,8.89
2017-12-20T10:05:59.758Z,8.9
2017-12-20T10:07:10.077Z,8.79
2017-12-20T10:08:20.216Z,8.57
2017-12-20T10:09:30.094Z,8.37
2017-12-20T10:10:40.315Z,8.13
2017-12-20T10:11:50.187Z,8.03
2017-12-20T10:13:00.087Z,7.82
2017-12-20T10:14:09.943Z,7.7
2017-12-20T10:15:20.065Z,7.33
2017-12-20T10:16:29.928Z,7.2
2017-12-20T10:17:39.789Z,7.03
2017-12-20T10:18:49.093Z,6.93
2017-12-20T10:19:59.232Z,6.72
2017-12-20T10:21:09.329Z,6.54
2017-12-20T10:22:19.469Z,6.46
2017-12-20T10:23:29.404Z,6.46
2017-12-20T10:24:39.359Z,6.44
2017-12-20T10:25:49.571Z,6.26
2017-12-20T10:26:59.507Z,6.19
2017-12-20T10:28:09.692Z,6.09
2017-12-20T10:29:19.442Z,6.01
2017-12-20T10:30:28.983Z,5.98
2017-12-20T10:31:39.164Z,5.99
2017-12-20T10:32:49.011Z,5.91
2017-12-20T10:33:58.875Z,5.99
2017-12-20T10:35:09.700Z,6.01
2017-12-20T10:36:19.880Z,5.94
2017-12-20T10:37:29.988Z,5.86
2017-12-20T10:38:39.789Z,5.84
2017-12-20T10:39:49.909Z,5.8
2017-12-20T10:40:59.746Z,5.79
2017-12-20T10:42:09.868Z,5.86
2017-12-20T10:43:19.743Z,5.88
2017-12-20T10:44:29.824Z,5.79
2017-12-20T10:45:39.977Z,5.77
2017-12-20T10:46:50.107Z,5.96
2017-12-20T10:48:00.248Z,5.9
2017-12-20T10:49:10.372Z,6.02
2017-12-20T10:50:20.133Z,6.03
2017-12-20T10:51:30.262Z,5.96
2017-12-20T10:52:40.104Z,6.06
2017-12-20T10:53:50.222Z,6.08
2017-12-20T10:55:00.346Z,6.12
2017-12-20T10:56:10.514Z,6.2
2017-12-20T10:57:20.082Z,6.44
2017-12-20T10:58:30.257Z,6.48
2017-12-20T10:59:40.368Z,6.62
2017-12-20T11:00:50.494Z,6.66
2017-12-20T11:02:00.674Z,6.79
2017-12-20T11:03:10.790Z,6.96
2017-12-20T11:04:20.763Z,6.97
2017-12-20T11:05:31.003Z,7
2017-12-20T11:06:40.517Z,7
2017-12-20T11:07:50.406Z,7
2017-12-20T11:09:00.589Z,6.99
2017-12-20T11:10:10.714Z,7.03
2017-12-20T11:11:20.919Z,7
2017-12-20T11:12:31.284Z,6.93
2017-12-20T11:13:41.465Z,6.78
2017-12-20T11:14:51.678Z,6.84
2017-12-20T11:16:01.850Z,6.84
2017-12-20T11:17:11.620Z,6.71
2017-12-20T11:18:21.514Z,6.75
2017-12-20T11:19:31.668Z,6.75
2017-12-20T11:20:41.828Z,6.82
2017-12-20T11:21:51.939Z,6.81
2017-12-20T11:23:02.066Z,6.79
2017-12-20T11:24:12.528Z,6.81
2017-12-20T11:25:21.960Z,6.79
2017-12-20T11:26:32.116Z,6.85
2017-12-20T11:27:42.307Z,6.79
2017-12-20T11:28:52.443Z,6.89
2017-12-20T11:30:01.948Z,6.77
2017-12-20T11:31:12.056Z,6.72
2017-12-20T11:32:21.570Z,6.64
2017-12-20T11:33:31.715Z,6.6
2017-12-20T11:34:42.213Z,6.53
2017-12-20T11:35:52.356Z,6.52
2017-12-20T11:37:02.591Z,6.45
2017-12-20T11:38:12.714Z,6.42
2017-12-20T11:39:22.870Z,6.31
2017-12-20T11:40:33.003Z,6.26
2017-12-20T11:41:42.918Z,6.3
2017-12-20T11:42:53.090Z,6.21
2017-12-20T11:44:03.270Z,6.28
2017-12-20T11:45:12.811Z,6.3
2017-12-20T11:46:22.955Z,6.3
2017-12-20T11:47:32.550Z,6.26
2017-12-20T11:48:42.428Z,6.27
2017-12-20T11:49:52.600Z,6.27
2017-12-20T11:51:02.449Z,6.27
2017-12-20T11:52:13.242Z,6.34
2017-12-20T11:53:23.366Z,6.26
2017-12-20T11:54:33.479Z,6.27
2017-12-20T11:55:43.643Z,6.26
2017-12-20T11:56:54.803Z,6.34
2017-12-20T11:58:05.298Z,6.31
2017-12-20T11:59:15.250Z,6.28
2017-12-20T12:00:25.460Z,6.3
2017-12-20T12:01:35.337Z,6.34
2017-12-20T12:02:45.116Z,6.26
2017-12-20T12:03:55.256Z,6.23
2017-12-20T12:05:04.800Z,6.28
2017-12-20T12:06:14.971Z,6.28
2017-12-20T12:07:25.090Z,6.16
2017-12-20T12:08:35.215Z,6.28
2017-12-20T12:09:45.378Z,6.27
2017-12-20T12:10:55.523Z,6.24
2017-12-20T12:12:05.770Z,6.16
2017-12-20T12:13:15.985Z,6.17
2017-12-20T12:14:26.213Z,6.24
2017-12-20T12:15:35.956Z,6.17
2017-12-20T12:16:46.082Z,6.16
2017-12-20T12:17:56.270Z,6.06
2017-12-20T12:19:06.133Z,6.05
2017-12-20T12:20:15.994Z,6.12
2017-12-20T12:21:25.779Z,6.08
2017-12-20T12:22:36.879Z,6.11
2017-12-20T12:23:47.077Z,6.09
2017-12-20T12:24:56.941Z,6.14
2017-12-20T12:26:07.058Z,6.17
2017-12-20T12:27:16.316Z,6.16
2017-12-20T12:28:26.435Z,6.16
2017-12-20T12:29:36.659Z,6.11
2017-12-20T12:30:47.800Z,6.11
2017-12-20T12:31:57.928Z,6.08
2017-12-20T12:33:07.782Z,5.98
2017-12-20T12:34:17.394Z,6.01
2017-12-20T12:35:27.574Z,5.99
2017-12-20T12:36:37.537Z,5.88
2017-12-20T12:37:47.339Z,5.9
2017-12-20T12:38:57.452Z,5.86
2017-12-20T12:40:07.656Z,5.83
2017-12-20T12:41:17.787Z,5.77
2017-12-20T12:42:27.991Z,5.88
2017-12-20T12:43:38.298Z,5.82
2017-12-20T12:44:48.208Z,5.72
2017-12-20T12:45:57.968Z,5.77
2017-12-20T12:47:07.564Z,5.8
2017-12-20T12:48:17.767Z,5.71
2017-12-20T12:49:27.993Z,5.72
2017-12-20T12:50:37.872Z,5.71
2017-12-20T12:51:47.764Z,5.71
2017-12-20T12:52:57.531Z,5.77
2017-12-20T12:54:07.686Z,5.68
2017-12-20T12:55:17.490Z,5.75
2017-12-20T12:56:27.651Z,5.69
2017-12-20T12:57:37.572Z,5.69
2017-12-20T12:58:47.741Z,5.71
2017-12-20T12:59:57.888Z,5.77
2017-12-20T13:01:08.025Z,5.74
2017-12-20T13:02:17.882Z,5.71
2017-12-20T13:03:28.102Z,5.72
2017-12-20T13:04:38.073Z,5.74
2017-12-20T13:05:48.180Z,5.8
2017-12-20T13:06:57.944Z,5.91
2017-12-20T13:08:08.106Z,5.79
2017-12-20T13:09:18.318Z,5.86
2017-12-20T13:10:27.969Z,5.96
2017-12-20T13:11:38.103Z,5.8
2017-12-20T13:12:48.307Z,5.75
2017-12-20T13:13:58.427Z,5.86
2017-12-20T13:15:08.539Z,5.75
2017-12-20T13:16:18.657Z,5.72
2017-12-20T13:17:28.869Z,5.79
2017-12-20T13:18:39.033Z,5.72
2017-12-20T13:19:48.938Z,5.88
2017-12-20T13:20:59.187Z,5.74
2017-12-20T13:22:09.409Z,5.86
2017-12-20T13:23:19.586Z,5.83
2017-12-20T13:24:29.744Z,5.79
2017-12-20T13:25:39.632Z,5.8
2017-12-20T13:26:50.744Z,5.82
2017-12-20T13:28:00.903Z,5.84
2017-12-20T13:29:11.064Z,5.9
2017-12-20T13:30:21.166Z,5.88
2017-12-20T13:31:31.345Z,5.68
2017-12-20T13:32:41.503Z,5.86
2017-12-20T13:33:52.663Z,5.82
2017-12-20T13:35:02.546Z,5.88
2017-12-20T13:36:12.702Z,5.74
2017-12-20T13:37:22.629Z,5.83
2017-12-20T13:38:33.024Z,5.67
2017-12-20T13:39:43.194Z,5.67
2017-12-20T13:40:53.381Z,5.71
2017-12-20T13:42:02.642Z,5.77
2017-12-20T13:43:12.529Z,5.68
2017-12-20T13:44:22.653Z,5.68
2017-12-20T13:45:32.898Z,5.69
2017-12-20T13:46:43.060Z,5.71
2017-12-20T13:47:52.956Z,5.67
2017-12-20T13:49:03.093Z,5.71
2017-12-20T13:50:13.222Z,5.75
2017-12-20T13:51:23.418Z,5.67
2017-12-20T13:52:34.551Z,5.67
2017-12-20T13:53:44.699Z,5.68
2017-12-20T13:54:54.911Z,5.67
2017-12-20T13:56:04.775Z,5.71
2017-12-20T13:57:14.950Z,5.67
2017-12-20T13:58:25.115Z,5.74
2017-12-20T13:59:35.247Z,5.71
2017-12-20T14:00:45.425Z,5.69
2017-12-20T14:01:55.553Z,5.79
2017-12-20T14:03:05.166Z,5.8
2017-12-20T14:04:15.375Z,5.79
2017-12-20T14:05:25.288Z,5.83
2017-12-20T14:06:35.409Z,5.82
2017-12-20T14:07:45.548Z,5.82
2017-12-20T14:08:55.693Z,5.82
2017-12-20T14:10:05.586Z,5.82
2017-12-20T14:11:15.730Z,5.84
2017-12-20T14:12:26.062Z,5.9
2017-12-20T14:13:35.977Z,5.84
2017-12-20T14:14:45.835Z,5.8
2017-12-20T14:15:55.992Z,5.84
2017-12-20T14:17:06.182Z,5.91
2017-12-20T14:18:16.137Z,5.71
2017-12-20T14:19:26.283Z,5.88
2017-12-20T14:20:35.798Z,5.79
2017-12-20T14:21:45.976Z,5.74
2017-12-20T14:22:56.092Z,5.8
2017-12-20T14:24:06.223Z,5.75
2017-12-20T14:25:16.406Z,5.67
2017-12-20T14:26:26.544Z,5.64
2017-12-20T14:27:36.402Z,5.59
2017-12-20T14:28:46.616Z,5.59
2017-12-20T14:29:56.447Z,5.54
2017-12-20T14:31:05.966Z,5.59
2017-12-20T14:32:15.896Z,5.56
2017-12-20T14:33:25.814Z,5.58
2017-12-20T14:34:35.570Z,5.59
2017-12-20T14:35:45.907Z,5.56
2017-12-20T14:36:56.064Z,5.59
2017-12-20T14:38:06.426Z,5.61
2017-12-20T14:39:16.580Z,5.51
2017-12-20T14:40:26.836Z,5.58
2017-12-20T14:41:37.094Z,5.61
2017-12-20T14:42:46.972Z,5.58
2017-12-20T14:43:57.154Z,5.56
2017-12-20T14:45:06.975Z,5.53
2017-12-20T14:46:17.118Z,5.54
2017-12-20T14:47:27.216Z,5.59
2017-12-20T14:48:37.344Z,5.53
2017-12-20T14:49:47.470Z,5.51
2017-12-20T14:50:57.663Z,5.58
2017-12-20T14:52:07.787Z,5.58
2017-12-20T14:53:17.906Z,5.54
2017-12-20T14:54:27.678Z,5.56
2017-12-20T14:55:37.813Z,5.59
2017-12-20T14:56:48.015Z,5.59
2017-12-20T14:57:58.183Z,5.54
2017-12-20T14:59:08.383Z,5.58
2017-12-20T15:00:17.996Z,5.56
2017-12-20T15:01:28.108Z,5.51
2017-12-20T15:02:38.271Z,5.53
2017-12-20T15:03:48.417Z,5.58
2017-12-20T15:04:58.575Z,5.54
2017-12-20T15:06:08.383Z,5.56
2017-12-20T15:07:18.614Z,5.51
2017-12-20T15:08:28.775Z,5.51
2017-12-20T15:09:39.086Z,5.54
2017-12-20T15:10:48.949Z,5.49
2017-12-20T15:11:58.517Z,5.43
2017-12-20T15:13:08.395Z,5.46
2017-12-20T15:14:18.546Z,5.46
2017-12-20T15:15:28.684Z,5.47
2017-12-20T15:16:38.576Z,5.46
2017-12-20T15:17:48.477Z,5.46
2017-12-20T15:18:58.615Z,5.41
2017-12-20T15:20:08.485Z,5.5
2017-12-20T15:21:18.797Z,5.46
2017-12-20T15:22:29.914Z,5.41
2017-12-20T15:23:40.077Z,5.44
2017-12-20T15:24:50.207Z,5.46
2017-12-20T15:26:00.349Z,5.41
2017-12-20T15:27:10.473Z,5.41
2017-12-20T15:28:20.237Z,5.53
2017-12-20T15:29:30.114Z,5.49
2017-12-20T15:30:40.080Z,5.41
2017-12-20T15:31:49.975Z,5.44
2017-12-20T15:33:00.100Z,5.46
2017-12-20T15:34:10.245Z,5.4
2017-12-20T15:35:20.454Z,5.35
2017-12-20T15:36:30.720Z,5.41